sensor_id;sensor_type;location;lat;lon;timestamp;pressure;altitude;pressure_sealevel;temperature;humidity
28167;BME280;15455;53.376;-6.262;2024-02-15T00:00:03;100190.97;;;10.13;100.00
28167;BME280;15455;53.376;-6.262;2024-02-15T00:02:49;100201.38;;;10.16;100.00
28167;BME280;15455;53.376;-6.262;2024-02-15T00:05:35;100198.75;;;10.17;100.00
28167;BME280;15455;53.376;-6.262;2024-02-15T00:08:22;100200.47;;;10.17;100.00
28167;BME280;15455;53.376;-6.262;2024-02-15T00:11:07;100211.78;;;10.17;100.00
28167;BME280;15455;53.376;-6.262;2024-02-15T00:13:54;100215.19;;;10.25;100.00
28167;BME280;15455;53.376;-6.262;2024-02-15T00:16:42;100221.22;;;10.31;100.00
28167;BME280;15455;53.376;-6.262;2024-02-15T00:19:27;100218.59;;;10.34;100.00
28167;BME280;15455;53.376;-6.262;2024-02-15T00:22:16;100222.84;;;10.47;100.00
28167;BME280;15455;53.376;-6.262;2024-02-15T00:25:02;100223.59;;;10.57;100.00
28167;BME280;15455;53.376;-6.262;2024-02-15T00:27:48;100227.03;;;10.62;100.00
28167;BME280;15455;53.376;-6.262;2024-02-15T00:30:33;100226.06;;;10.69;100.00
28167;BME280;15455;53.376;-6.262;2024-02-15T00:33:18;100214.63;;;10.80;100.00
28167;BME280;15455;53.376;-6.262;2024-02-15T00:36:05;100222.34;;;10.89;100.00
28167;BME280;15455;53.376;-6.262;2024-02-15T00:38:50;100230.16;;;10.92;100.00
28167;BME280;15455;53.376;-6.262;2024-02-15T00:41:37;100223.16;;;10.94;100.00
28167;BME280;15455;53.376;-6.262;2024-02-15T00:44:27;100208.31;;;10.96;100.00
28167;BME280;15455;53.376;-6.262;2024-02-15T00:47:13;100209.19;;;10.98;100.00
28167;BME280;15455;53.376;-6.262;2024-02-15T00:49:59;100208.31;;;10.98;100.00
28167;BME280;15455;53.376;-6.262;2024-02-15T00:52:44;100210.94;;;10.99;100.00
28167;BME280;15455;53.376;-6.262;2024-02-15T00:55:30;100206.59;;;10.98;100.00
28167;BME280;15455;53.376;-6.262;2024-02-15T00:58:16;100201.31;;;11.01;100.00
28167;BME280;15455;53.376;-6.262;2024-02-15T01:01:02;100200.44;;;11.02;100.00
28167;BME280;15455;53.376;-6.262;2024-02-15T01:03:48;100188.22;;;11.04;100.00
28167;BME280;15455;53.376;-6.262;2024-02-15T01:06:33;100186.47;;;11.06;100.00
28167;BME280;15455;53.376;-6.262;2024-02-15T01:09:21;100183.81;;;11.08;100.00
28167;BME280;15455;53.376;-6.262;2024-02-15T01:12:07;100190.75;;;11.09;100.00
28167;BME280;15455;53.376;-6.262;2024-02-15T01:14:53;100199.50;;;11.06;100.00
28167;BME280;15455;53.376;-6.262;2024-02-15T01:17:38;100190.88;;;11.01;100.00
28167;BME280;15455;53.376;-6.262;2024-02-15T01:20:24;100194.41;;;10.97;100.00
28167;BME280;15455;53.376;-6.262;2024-02-15T01:23:10;100193.56;;;10.95;100.00
28167;BME280;15455;53.376;-6.262;2024-02-15T01:25:56;100187.47;;;10.94;100.00
28167;BME280;15455;53.376;-6.262;2024-02-15T01:28:43;100196.16;;;10.97;100.00
28167;BME280;15455;53.376;-6.262;2024-02-15T01:31:29;100184.84;;;10.94;100.00
28167;BME280;15455;53.376;-6.262;2024-02-15T01:34:14;100190.09;;;10.93;100.00
28167;BME280;15455;53.376;-6.262;2024-02-15T01:37:00;100184.91;;;10.90;100.00
28167;BME280;15455;53.376;-6.262;2024-02-15T01:39:46;100178.88;;;10.88;100.00
28167;BME280;15455;53.376;-6.262;2024-02-15T01:42:32;100172.75;;;10.87;100.00
28167;BME280;15455;53.376;-6.262;2024-02-15T01:45:18;100177.97;;;10.87;100.00
28167;BME280;15455;53.376;-6.262;2024-02-15T01:48:05;100178.88;;;10.88;100.00
28167;BME280;15455;53.376;-6.262;2024-02-15T01:50:52;100176.25;;;10.88;100.00
28167;BME280;15455;53.376;-6.262;2024-02-15T01:53:38;100168.44;;;10.88;100.00
28167;BME280;15455;53.376;-6.262;2024-02-15T01:56:26;100162.28;;;10.90;100.00
28167;BME280;15455;53.376;-6.262;2024-02-15T01:59:15;100162.28;;;10.92;100.00
28167;BME280;15455;53.376;-6.262;2024-02-15T02:02:04;100170.06;;;10.95;100.00
28167;BME280;15455;53.376;-6.262;2024-02-15T02:04:53;100165.72;;;10.94;100.00
28167;BME280;15455;53.376;-6.262;2024-02-15T02:07:39;100162.25;;;10.93;100.00
28167;BME280;15455;53.376;-6.262;2024-02-15T02:10:25;100164.91;;;10.92;100.00
28167;BME280;15455;53.376;-6.262;2024-02-15T02:13:12;100166.66;;;10.90;100.00
28167;BME280;15455;53.376;-6.262;2024-02-15T02:15:58;100162.28;;;10.92;100.00
28167;BME280;15455;53.376;-6.262;2024-02-15T02:18:45;100165.78;;;10.91;100.00
28167;BME280;15455;53.376;-6.262;2024-02-15T02:21:32;100162.28;;;10.89;100.00
28167;BME280;15455;53.376;-6.262;2024-02-15T02:24:22;100157.13;;;10.86;100.00
28167;BME280;15455;53.376;-6.262;2024-02-15T02:27:09;100155.44;;;10.82;100.00
28167;BME280;15455;53.376;-6.262;2024-02-15T02:29:55;100150.28;;;10.77;100.00
28167;BME280;15455;53.376;-6.262;2024-02-15T02:32:42;100163.38;;;10.74;100.00
28167;BME280;15455;53.376;-6.262;2024-02-15T02:35:28;100158.22;;;10.69;100.00
28167;BME280;15455;53.376;-6.262;2024-02-15T02:38:15;100158.22;;;10.68;100.00
28167;BME280;15455;53.376;-6.262;2024-02-15T02:41:01;100159.97;;;10.66;100.00
28167;BME280;15455;53.376;-6.262;2024-02-15T02:43:47;100161.78;;;10.62;100.00
28167;BME280;15455;53.376;-6.262;2024-02-15T02:46:32;100157.47;;;10.58;100.00
28167;BME280;15455;53.376;-6.262;2024-02-15T02:49:18;100154.06;;;10.54;100.00
28167;BME280;15455;53.376;-6.262;2024-02-15T02:52:04;100147.16;;;10.50;100.00
28167;BME280;15455;53.376;-6.262;2024-02-15T02:54:50;100148.06;;;10.46;100.00
28167;BME280;15455;53.376;-6.262;2024-02-15T02:57:38;100130.66;;;10.47;100.00
28167;BME280;15455;53.376;-6.262;2024-02-15T03:00:23;100135.91;;;10.43;100.00
28167;BME280;15455;53.376;-6.262;2024-02-15T03:03:09;100127.25;;;10.38;100.00
28167;BME280;15455;53.376;-6.262;2024-02-15T03:05:55;100118.59;;;10.33;100.00
28167;BME280;15455;53.376;-6.262;2024-02-15T03:08:41;100113.44;;;10.29;100.00
28167;BME280;15455;53.376;-6.262;2024-02-15T03:11:26;100109.16;;;10.24;100.00
28167;BME280;15455;53.376;-6.262;2024-02-15T03:14:12;100103.13;;;10.18;100.00
28167;BME280;15455;53.376;-6.262;2024-02-15T03:16:58;100097.97;;;10.13;100.00
28167;BME280;15455;53.376;-6.262;2024-02-15T03:19:43;100085.84;;;10.07;100.00
28167;BME280;15455;53.376;-6.262;2024-02-15T03:22:29;100090.25;;;10.02;100.00
28167;BME280;15455;53.376;-6.262;2024-02-15T03:25:15;100086.84;;;9.97;100.00
28167;BME280;15455;53.376;-6.262;2024-02-15T03:28:01;100082.50;;;9.95;100.00
28167;BME280;15455;53.376;-6.262;2024-02-15T03:30:49;100079.91;;;9.96;100.00
28167;BME280;15455;53.376;-6.262;2024-02-15T03:33:35;100073.84;;;9.94;100.00
28167;BME280;15455;53.376;-6.262;2024-02-15T03:36:21;100072.16;;;9.90;100.00
28167;BME280;15455;53.376;-6.262;2024-02-15T03:39:08;100070.44;;;9.87;100.00
28167;BME280;15455;53.376;-6.262;2024-02-15T03:41:55;100066.09;;;9.85;100.00
28167;BME280;15455;53.376;-6.262;2024-02-15T03:44:41;100061.81;;;9.82;100.00
28167;BME280;15455;53.376;-6.262;2024-02-15T03:47:26;100057.50;;;9.78;100.00
28167;BME280;15455;53.376;-6.262;2024-02-15T03:50:14;100060.13;;;9.77;100.00
28167;BME280;15455;53.376;-6.262;2024-02-15T03:53:00;100053.22;;;9.72;100.00
28167;BME280;15455;53.376;-6.262;2024-02-15T03:55:46;100046.28;;;9.71;100.00
28167;BME280;15455;53.376;-6.262;2024-02-15T03:58:32;100049.75;;;9.73;100.00
28167;BME280;15455;53.376;-6.262;2024-02-15T04:01:18;100041.03;;;9.73;100.00
28167;BME280;15455;53.376;-6.262;2024-02-15T04:04:04;100036.69;;;9.72;100.00
28167;BME280;15455;53.376;-6.262;2024-02-15T04:06:50;100028.91;;;9.73;100.00
28167;BME280;15455;53.376;-6.262;2024-02-15T04:09:37;100035.88;;;9.68;100.00
28167;BME280;15455;53.376;-6.262;2024-02-15T04:12:22;100028.16;;;9.61;100.00
28167;BME280;15455;53.376;-6.262;2024-02-15T04:15:08;100022.09;;;9.57;100.00
28167;BME280;15455;53.376;-6.262;2024-02-15T04:17:58;100025.59;;;9.54;100.00
28167;BME280;15455;53.376;-6.262;2024-02-15T04:20:45;100032.56;;;9.52;100.00
28167;BME280;15455;53.376;-6.262;2024-02-15T04:23:32;100023.91;;;9.50;100.00
28167;BME280;15455;53.376;-6.262;2024-02-15T04:26:17;100018.69;;;9.50;100.00
28167;BME280;15455;53.376;-6.262;2024-02-15T04:29:05;100023.91;;;9.49;100.00
28167;BME280;15455;53.376;-6.262;2024-02-15T04:31:54;100015.28;;;9.45;100.00
28167;BME280;15455;53.376;-6.262;2024-02-15T04:34:40;100010.97;;;9.43;100.00
28167;BME280;15455;53.376;-6.262;2024-02-15T04:37:26;99996.19;;;9.42;100.00
28167;BME280;15455;53.376;-6.262;2024-02-15T04:40:14;99999.72;;;9.39;100.00
28167;BME280;15455;53.376;-6.262;2024-02-15T04:43:00;100004.97;;;9.36;100.00
28167;BME280;15455;53.376;-6.262;2024-02-15T04:45:47;100005.88;;;9.32;100.00
28167;BME280;15455;53.376;-6.262;2024-02-15T04:48:33;100008.47;;;9.32;100.00
28167;BME280;15455;53.376;-6.262;2024-02-15T04:51:20;99998.06;;;9.30;100.00
28167;BME280;15455;53.376;-6.262;2024-02-15T04:54:05;99996.34;;;9.29;100.00
28167;BME280;15455;53.376;-6.262;2024-02-15T04:56:52;99998.06;;;9.27;100.00
28167;BME280;15455;53.376;-6.262;2024-02-15T04:59:40;99997.19;;;9.28;100.00
28167;BME280;15455;53.376;-6.262;2024-02-15T05:02:26;99992.88;;;9.29;100.00
28167;BME280;15455;53.376;-6.262;2024-02-15T05:05:11;99990.28;;;9.29;100.00
28167;BME280;15455;53.376;-6.262;2024-02-15T05:07:58;99992.88;;;9.29;100.00
28167;BME280;15455;53.376;-6.262;2024-02-15T05:10:46;99993.72;;;9.29;100.00
28167;BME280;15455;53.376;-6.262;2024-02-15T05:13:32;99983.31;;;9.29;100.00
28167;BME280;15455;53.376;-6.262;2024-02-15T05:16:18;99987.66;;;9.30;100.00
28167;BME280;15455;53.376;-6.262;2024-02-15T05:19:04;99977.22;;;9.32;100.00
28167;BME280;15455;53.376;-6.262;2024-02-15T05:21:51;99972.88;;;9.32;100.00
28167;BME280;15455;53.376;-6.262;2024-02-15T05:24:36;99970.28;;;9.31;100.00
28167;BME280;15455;53.376;-6.262;2024-02-15T05:27:24;99962.47;;;9.31;100.00
28167;BME280;15455;53.376;-6.262;2024-02-15T05:30:10;99968.53;;;9.31;100.00
28167;BME280;15455;53.376;-6.262;2024-02-15T05:32:57;99974.63;;;9.30;100.00
28167;BME280;15455;53.376;-6.262;2024-02-15T05:35:42;99969.44;;;9.30;100.00
28167;BME280;15455;53.376;-6.262;2024-02-15T05:38:31;99971.16;;;9.28;100.00
28167;BME280;15455;53.376;-6.262;2024-02-15T05:41:17;99958.16;;;9.27;100.00
28167;BME280;15455;53.376;-6.262;2024-02-15T05:44:05;99953.00;;;9.24;100.00
28167;BME280;15455;53.376;-6.262;2024-02-15T05:46:52;99957.38;;;9.21;100.00
28167;BME280;15455;53.376;-6.262;2024-02-15T05:49:37;99944.34;;;9.18;100.00
28167;BME280;15455;53.376;-6.262;2024-02-15T05:52:23;99959.13;;;9.16;100.00
28167;BME280;15455;53.376;-6.262;2024-02-15T05:55:08;99953.09;;;9.14;100.00
28167;BME280;15455;53.376;-6.262;2024-02-15T05:57:54;99955.69;;;9.14;100.00
28167;BME280;15455;53.376;-6.262;2024-02-15T06:00:40;99956.53;;;9.15;100.00
28167;BME280;15455;53.376;-6.262;2024-02-15T06:03:30;99966.94;;;9.16;100.00
28167;BME280;15455;53.376;-6.262;2024-02-15T06:06:17;99956.56;;;9.13;100.00
28167;BME280;15455;53.376;-6.262;2024-02-15T06:09:02;99955.69;;;9.13;100.00
28167;BME280;15455;53.376;-6.262;2024-02-15T06:11:48;99947.88;;;9.13;100.00
28167;BME280;15455;53.376;-6.262;2024-02-15T06:14:36;99945.28;;;9.11;100.00
28167;BME280;15455;53.376;-6.262;2024-02-15T06:17:21;99928.84;;;9.09;100.00
28167;BME280;15455;53.376;-6.262;2024-02-15T06:20:07;99927.13;;;9.07;100.00
28167;BME280;15455;53.376;-6.262;2024-02-15T06:22:53;99929.75;;;9.03;100.00
28167;BME280;15455;53.376;-6.262;2024-02-15T06:25:38;99928.03;;;9.01;100.00
28167;BME280;15455;53.376;-6.262;2024-02-15T06:28:24;99930.66;;;8.99;100.00
28167;BME280;15455;53.376;-6.262;2024-02-15T06:31:29;99928.94;;;9.00;100.00
28167;BME280;15455;53.376;-6.262;2024-02-15T06:34:33;99929.78;;;9.00;100.00
28167;BME280;15455;53.376;-6.262;2024-02-15T06:37:40;99921.97;;;9.00;100.00
28167;BME280;15455;53.376;-6.262;2024-02-15T06:40:44;99928.03;;;9.01;100.00
28167;BME280;15455;53.376;-6.262;2024-02-15T06:43:30;99932.34;;;9.03;100.00
28167;BME280;15455;53.376;-6.262;2024-02-15T06:46:15;99922.78;;;9.04;100.00
28167;BME280;15455;53.376;-6.262;2024-02-15T06:49:01;99922.78;;;9.06;100.00
28167;BME280;15455;53.376;-6.262;2024-02-15T06:51:48;99911.50;;;9.05;100.00
28167;BME280;15455;53.376;-6.262;2024-02-15T06:54:35;99913.25;;;9.06;100.00
28167;BME280;15455;53.376;-6.262;2024-02-15T06:57:24;99914.09;;;9.07;100.00
28167;BME280;15455;53.376;-6.262;2024-02-15T07:00:10;99908.88;;;9.08;100.00
28167;BME280;15455;53.376;-6.262;2024-02-15T07:03:01;99916.66;;;9.10;100.00
28167;BME280;15455;53.376;-6.262;2024-02-15T07:05:46;99916.66;;;9.10;100.00
28167;BME280;15455;53.376;-6.262;2024-02-15T07:08:32;99923.59;;;9.11;100.00
28167;BME280;15455;53.376;-6.262;2024-02-15T07:11:18;99918.38;;;9.12;100.00
28167;BME280;15455;53.376;-6.262;2024-02-15T07:14:04;99917.53;;;9.12;100.00
28167;BME280;15455;53.376;-6.262;2024-02-15T07:16:52;99914.94;;;9.12;100.00
28167;BME280;15455;53.376;-6.262;2024-02-15T07:19:47;99917.53;;;9.12;100.00
28167;BME280;15455;53.376;-6.262;2024-02-15T07:22:34;99900.16;;;9.12;100.00
28167;BME280;15455;53.376;-6.262;2024-02-15T07:25:20;99899.31;;;9.12;100.00
28167;BME280;15455;53.376;-6.262;2024-02-15T07:28:06;99892.34;;;9.12;100.00
28167;BME280;15455;53.376;-6.262;2024-02-15T07:30:53;99885.28;;;9.25;100.00
28167;BME280;15455;53.376;-6.262;2024-02-15T07:33:40;99894.72;;;9.35;100.00
28167;BME280;15455;53.376;-6.262;2024-02-15T07:36:28;99890.28;;;9.44;100.00
28167;BME280;15455;53.376;-6.262;2024-02-15T07:39:14;99904.09;;;9.52;100.00
28167;BME280;15455;53.376;-6.262;2024-02-15T07:42:09;99907.41;;;9.62;100.00
28167;BME280;15455;53.376;-6.262;2024-02-15T07:44:54;99909.09;;;9.67;100.00
28167;BME280;15455;53.376;-6.262;2024-02-15T07:47:40;99900.31;;;9.74;100.00
28167;BME280;15455;53.376;-6.262;2024-02-15T07:50:26;99908.00;;;9.87;100.00
28167;BME280;15455;53.376;-6.262;2024-02-15T07:53:12;99909.53;;;10.00;100.00
28167;BME280;15455;53.376;-6.262;2024-02-15T07:55:59;99912.88;;;10.10;100.00
28167;BME280;15455;53.376;-6.262;2024-02-15T07:58:47;99917.94;;;10.21;100.00
28167;BME280;15455;53.376;-6.262;2024-02-15T08:01:40;99923.94;;;10.28;100.00
28167;BME280;15455;53.376;-6.262;2024-02-15T08:04:26;99930.88;;;10.29;100.00
28167;BME280;15455;53.376;-6.262;2024-02-15T08:07:12;99919.53;;;10.31;100.00
28167;BME280;15455;53.376;-6.262;2024-02-15T08:09:58;99929.97;;;10.31;100.00
28167;BME280;15455;53.376;-6.262;2024-02-15T08:12:45;99931.69;;;10.32;100.00
28167;BME280;15455;53.376;-6.262;2024-02-15T08:15:31;99928.22;;;10.32;100.00
28167;BME280;15455;53.376;-6.262;2024-02-15T08:18:18;99924.75;;;10.33;100.00
28167;BME280;15455;53.376;-6.262;2024-02-15T08:21:05;99925.63;;;10.32;100.00
28167;BME280;15455;53.376;-6.262;2024-02-15T08:23:50;99923.88;;;10.31;100.00
28167;BME280;15455;53.376;-6.262;2024-02-15T08:26:37;99929.09;;;10.31;100.00
28167;BME280;15455;53.376;-6.262;2024-02-15T08:29:27;99923.03;;;10.30;100.00
28167;BME280;15455;53.376;-6.262;2024-02-15T08:32:13;99914.31;;;10.31;100.00
28167;BME280;15455;53.376;-6.262;2024-02-15T08:34:59;99916.91;;;10.33;100.00
28167;BME280;15455;53.376;-6.262;2024-02-15T08:37:45;99914.31;;;10.33;100.00
28167;BME280;15455;53.376;-6.262;2024-02-15T08:40:32;99912.56;;;10.35;100.00
28167;BME280;15455;53.376;-6.262;2024-02-15T08:43:18;99914.31;;;10.34;100.00
28167;BME280;15455;53.376;-6.262;2024-02-15T08:46:04;99912.53;;;10.36;100.00
28167;BME280;15455;53.376;-6.262;2024-02-15T08:48:51;99909.06;;;10.37;100.00
28167;BME280;15455;53.376;-6.262;2024-02-15T08:51:37;99911.59;;;10.42;100.00
28167;BME280;15455;53.376;-6.262;2024-02-15T08:54:23;99912.38;;;10.46;100.00
28167;BME280;15455;53.376;-6.262;2024-02-15T08:57:09;99921.91;;;10.48;100.00
28167;BME280;15455;53.376;-6.262;2024-02-15T08:59:54;99918.44;;;10.49;100.00
28167;BME280;15455;53.376;-6.262;2024-02-15T09:02:40;99921.00;;;10.51;100.00
28167;BME280;15455;53.376;-6.262;2024-02-15T09:05:26;99914.00;;;10.53;100.00
28167;BME280;15455;53.376;-6.262;2024-02-15T09:08:11;99916.63;;;10.54;100.00
28167;BME280;15455;53.376;-6.262;2024-02-15T09:10:57;99923.53;;;10.55;100.00
28167;BME280;15455;53.376;-6.262;2024-02-15T09:13:43;99925.28;;;10.56;100.00
28167;BME280;15455;53.376;-6.262;2024-02-15T09:16:29;99929.59;;;10.59;100.00
28167;BME280;15455;53.376;-6.262;2024-02-15T09:19:16;99925.16;;;10.63;100.00
28167;BME280;15455;53.376;-6.262;2024-02-15T09:22:02;99929.44;;;10.68;100.00
28167;BME280;15455;53.376;-6.262;2024-02-15T09:24:51;99941.56;;;10.72;100.00
28167;BME280;15455;53.376;-6.262;2024-02-15T09:27:37;99936.28;;;10.75;100.00
28167;BME280;15455;53.376;-6.262;2024-02-15T09:30:22;99946.66;;;10.78;100.00
28167;BME280;15455;53.376;-6.262;2024-02-15T09:33:10;99944.00;;;10.82;100.00
28167;BME280;15455;53.376;-6.262;2024-02-15T09:35:56;99944.81;;;10.85;100.00
28167;BME280;15455;53.376;-6.262;2024-02-15T09:38:42;99949.13;;;10.89;100.00
28167;BME280;15455;53.376;-6.262;2024-02-15T09:41:27;99947.31;;;10.91;100.00
28167;BME280;15455;53.376;-6.262;2024-02-15T09:44:13;99953.38;;;10.95;100.00
28167;BME280;15455;53.376;-6.262;2024-02-15T09:47:04;99948.94;;;10.99;100.00
28167;BME280;15455;53.376;-6.262;2024-02-15T09:49:54;99951.47;;;11.03;100.00
28167;BME280;15455;53.376;-6.262;2024-02-15T09:52:52;99946.19;;;11.08;100.00
28167;BME280;15455;53.376;-6.262;2024-02-15T09:55:39;99950.41;;;11.13;100.00
28167;BME280;15455;53.376;-6.262;2024-02-15T09:58:26;99951.25;;;11.17;100.00
28167;BME280;15455;53.376;-6.262;2024-02-15T10:01:16;99950.28;;;11.23;100.00
28167;BME280;15455;53.376;-6.262;2024-02-15T10:04:05;99950.19;;;11.27;100.00
28167;BME280;15455;53.376;-6.262;2024-02-15T10:06:52;99964.84;;;11.35;100.00
28167;BME280;15455;53.376;-6.262;2024-02-15T10:09:38;99960.44;;;11.38;100.00
28167;BME280;15455;53.376;-6.262;2024-02-15T10:12:37;99969.00;;;11.45;100.00
28167;BME280;15455;53.376;-6.262;2024-02-15T10:18:20;99976.66;;;11.56;100.00
28167;BME280;15455;53.376;-6.262;2024-02-15T10:21:06;99983.59;;;11.58;100.00
28167;BME280;15455;53.376;-6.262;2024-02-15T10:24:05;99980.94;;;11.60;100.00
28167;BME280;15455;53.376;-6.262;2024-02-15T10:26:51;99982.63;;;11.62;100.00
28167;BME280;15455;53.376;-6.262;2024-02-15T10:29:45;99984.38;;;11.62;100.00
28167;BME280;15455;53.376;-6.262;2024-02-15T10:32:34;99986.16;;;11.61;100.00
28167;BME280;15455;53.376;-6.262;2024-02-15T10:35:21;99980.81;;;11.66;100.00
28167;BME280;15455;53.376;-6.262;2024-02-15T10:38:11;99974.69;;;11.69;100.00
28167;BME280;15455;53.376;-6.262;2024-02-15T10:41:05;99979.00;;;11.70;100.00
28167;BME280;15455;53.376;-6.262;2024-02-15T10:43:52;99980.66;;;11.74;100.00
28167;BME280;15455;53.376;-6.262;2024-02-15T10:46:40;99978.88;;;11.77;100.00
28167;BME280;15455;53.376;-6.262;2024-02-15T10:49:26;99987.47;;;11.82;100.00
28167;BME280;15455;53.376;-6.262;2024-02-15T10:52:13;99988.31;;;11.85;100.00
28167;BME280;15455;53.376;-6.262;2024-02-15T10:55:04;99982.16;;;11.86;100.00
28167;BME280;15455;53.376;-6.262;2024-02-15T10:57:57;99994.38;;;11.85;100.00
28167;BME280;15455;53.376;-6.262;2024-02-15T11:00:46;99990.94;;;11.85;100.00
28167;BME280;15455;53.376;-6.262;2024-02-15T11:03:35;99987.47;;;11.82;100.00
28167;BME280;15455;53.376;-6.262;2024-02-15T11:06:24;99987.34;;;11.87;100.00
28167;BME280;15455;53.376;-6.262;2024-02-15T11:09:12;99985.56;;;11.91;100.00
28167;BME280;15455;53.376;-6.262;2024-02-15T11:11:59;99997.78;;;11.90;100.00
28167;BME280;15455;53.376;-6.262;2024-02-15T11:14:46;100000.38;;;11.92;100.00
28167;BME280;15455;53.376;-6.262;2024-02-15T11:23:27;99983.75;;;11.93;100.00
28167;BME280;15455;53.376;-6.262;2024-02-15T11:26:44;99976.88;;;11.90;100.00
28167;BME280;15455;53.376;-6.262;2024-02-15T11:29:52;99978.59;;;11.90;100.00
28167;BME280;15455;53.376;-6.262;2024-02-15T11:32:43;99970.06;;;11.81;100.00
28167;BME280;15455;53.376;-6.262;2024-02-15T11:36:04;99958.97;;;11.70;100.00
28167;BME280;15455;53.376;-6.262;2024-02-15T11:38:53;99961.47;;;11.75;100.00
28167;BME280;15455;53.376;-6.262;2024-02-15T11:41:39;99962.00;;;11.94;100.00
28167;BME280;15455;53.376;-6.262;2024-02-15T11:44:25;99964.38;;;12.06;100.00
28167;BME280;15455;53.376;-6.262;2024-02-15T11:47:11;99958.13;;;12.13;100.00
28167;BME280;15455;53.376;-6.262;2024-02-15T11:49:59;99953.66;;;12.17;100.00
28167;BME280;15455;53.376;-6.262;2024-02-15T11:52:50;99954.50;;;12.19;100.00
28167;BME280;15455;53.376;-6.262;2024-02-15T11:55:37;99955.09;;;12.30;100.00
28167;BME280;15455;53.376;-6.262;2024-02-15T11:58:23;99946.88;;;12.47;100.00
28167;BME280;15455;53.376;-6.262;2024-02-15T12:01:15;99939.72;;;12.56;100.00
28167;BME280;15455;53.376;-6.262;2024-02-15T12:04:19;99930.09;;;12.56;100.00
28167;BME280;15455;53.376;-6.262;2024-02-15T12:07:40;99930.25;;;12.50;100.00
28167;BME280;15455;53.376;-6.262;2024-02-15T12:10:57;99921.88;;;12.34;100.00
28167;BME280;15455;53.376;-6.262;2024-02-15T12:14:01;99919.28;;;12.34;100.00
28167;BME280;15455;53.376;-6.262;2024-02-15T12:17:11;99934.97;;;12.34;100.00
28167;BME280;15455;53.376;-6.262;2024-02-15T12:20:16;99937.63;;;12.32;100.00
28167;BME280;15455;53.376;-6.262;2024-02-15T12:23:02;99927.25;;;12.29;100.00
28167;BME280;15455;53.376;-6.262;2024-02-15T12:25:52;99915.88;;;12.29;100.00
28167;BME280;15455;53.376;-6.262;2024-02-15T12:28:38;99911.53;;;12.29;100.00
28167;BME280;15455;53.376;-6.262;2024-02-15T12:31:29;99908.88;;;12.31;100.00
28167;BME280;15455;53.376;-6.262;2024-02-15T12:34:20;99909.72;;;12.31;100.00
28167;BME280;15455;53.376;-6.262;2024-02-15T12:37:06;99907.06;;;12.33;100.00
28167;BME280;15455;53.376;-6.262;2024-02-15T12:39:54;99901.84;;;12.33;100.00
28167;BME280;15455;53.376;-6.262;2024-02-15T12:42:40;99899.13;;;12.38;100.00
28167;BME280;15455;53.376;-6.262;2024-02-15T12:45:27;99890.56;;;12.31;100.00
28167;BME280;15455;53.376;-6.262;2024-02-15T12:48:15;99886.09;;;12.34;100.00
28167;BME280;15455;53.376;-6.262;2024-02-15T12:51:22;99888.69;;;12.36;100.00
28167;BME280;15455;53.376;-6.262;2024-02-15T12:54:09;99894.19;;;12.25;100.00
28167;BME280;15455;53.376;-6.262;2024-02-15T12:57:08;99886.25;;;12.28;100.00
28167;BME280;15455;53.376;-6.262;2024-02-15T13:00:03;99899.50;;;12.22;100.00
28167;BME280;15455;53.376;-6.262;2024-02-15T13:02:57;99906.38;;;12.26;100.00
28167;BME280;15455;53.376;-6.262;2024-02-15T13:05:43;99908.00;;;12.30;100.00
28167;BME280;15455;53.376;-6.262;2024-02-15T13:08:30;99912.88;;;12.46;100.00
28167;BME280;15455;53.376;-6.262;2024-02-15T13:11:17;99904.84;;;12.55;100.00
28167;BME280;15455;53.376;-6.262;2024-02-15T13:14:02;99892.63;;;12.54;100.00
28167;BME280;15455;53.376;-6.262;2024-02-15T13:16:49;99890.06;;;12.53;100.00
28167;BME280;15455;53.376;-6.262;2024-02-15T13:19:35;99894.31;;;12.57;100.00
28167;BME280;15455;53.376;-6.262;2024-02-15T13:22:21;99885.72;;;12.51;100.00
28167;BME280;15455;53.376;-6.262;2024-02-15T13:25:07;99885.56;;;12.58;100.00
28167;BME280;15455;53.376;-6.262;2024-02-15T13:27:56;99878.50;;;12.61;100.00
28167;BME280;15455;53.376;-6.262;2024-02-15T13:30:45;99882.84;;;12.62;100.00
28167;BME280;15455;53.376;-6.262;2024-02-15T13:33:31;99878.63;;;12.57;100.00
28167;BME280;15455;53.376;-6.262;2024-02-15T13:36:18;99884.94;;;12.48;100.00
28167;BME280;15455;53.376;-6.262;2024-02-15T13:39:05;99895.38;;;12.49;100.00
28167;BME280;15455;53.376;-6.262;2024-02-15T13:41:54;99898.00;;;12.49;100.00
28167;BME280;15455;53.376;-6.262;2024-02-15T13:44:40;99896.22;;;12.50;100.00
28167;BME280;15455;53.376;-6.262;2024-02-15T13:47:25;99892.78;;;12.48;100.00
28167;BME280;15455;53.376;-6.262;2024-02-15T13:50:11;99905.00;;;12.47;100.00
28167;BME280;15455;53.376;-6.262;2024-02-15T13:53:00;99905.75;;;12.53;100.00
28167;BME280;15455;53.376;-6.262;2024-02-15T13:55:47;99907.28;;;12.61;100.00
28167;BME280;15455;53.376;-6.262;2024-02-15T13:58:33;99904.41;;;12.72;100.00
28167;BME280;15455;53.376;-6.262;2024-02-15T14:01:18;99897.38;;;12.74;100.00
28167;BME280;15455;53.376;-6.262;2024-02-15T14:04:04;99898.16;;;12.78;100.00
28167;BME280;15455;53.376;-6.262;2024-02-15T14:06:53;99905.16;;;12.77;100.00
28167;BME280;15455;53.376;-6.262;2024-02-15T14:09:39;99893.88;;;12.74;100.00
28167;BME280;15455;53.376;-6.262;2024-02-15T14:12:24;99904.31;;;12.75;100.00
28167;BME280;15455;53.376;-6.262;2024-02-15T14:15:10;99902.53;;;12.77;100.00
28167;BME280;15455;53.376;-6.262;2024-02-15T14:17:57;99916.34;;;12.82;100.00
28167;BME280;15455;53.376;-6.262;2024-02-15T14:20:47;99918.97;;;12.82;100.00
28167;BME280;15455;53.376;-6.262;2024-02-15T14:23:34;99918.09;;;12.83;100.00
28167;BME280;15455;53.376;-6.262;2024-02-15T14:26:21;99925.84;;;12.86;100.00
28167;BME280;15455;53.376;-6.262;2024-02-15T14:29:09;99925.72;;;12.91;100.00
28167;BME280;15455;53.376;-6.262;2024-02-15T14:31:56;99922.31;;;12.89;100.00
28167;BME280;15455;53.376;-6.262;2024-02-15T14:35:00;99930.91;;;12.94;100.00